Agia Marina — SX5375 — position and weather

sailwx.info

Track history (hours):
 
Tides and Currents Weather Stations Pressure Air Temp Water Temp Dewpoint Dewpoint Depression Visibility Wind Speed Wind Dir Waves Ship Positions

Agia Marina

Last reported at 2014-Nov-20 21:07 UTC. Time now 2014-Nov-23 16:58 UTC.
Position N 36°04' E 026°18'.

Length 59 m; draft 2.5 m.

Type: Cargo ship. MMSI: 237042500.

Date/timePositionNaut miles runAvg speedWind from/ knotsBaromVisibWave heightAir tempDewpointWater temp
2014-Nov-20 21:07N 36°04' E 026°18'4 6.7
2014-Nov-20 20:33N 36°06' E 026°14'7 6.9
2014-Nov-20 19:33N 36°10' E 026°07'7 6.5
2014-Nov-20 18:33N 36°14' E 026°01'6 5.9
2014-Nov-20 17:33N 36°18' E 025°55'5 5.5
2014-Nov-20 16:34N 36°20' E 025°49'7 6.6
2014-Nov-20 15:33N 36°22' E 025°41'6 5.7
2014-Nov-20 14:33N 36°24' E 025°34'7 6.7
2014-Nov-20 13:33N 36°28' E 025°28'7 6.8
2014-Nov-20 12:33N 36°31' E 025°20'7 6.7
2014-Nov-20 11:33N 36°33' E 025°12'7 6.7
2014-Nov-20 10:33N 36°36' E 025°04'7 6.9
2014-Nov-20 09:33N 36°39' E 024°57'7 6.9
2014-Nov-20 08:33N 36°41' E 024°49'7 6.7
2014-Nov-20 07:33N 36°43' E 024°41'7 6.7
2014-Nov-20 06:33N 36°46' E 024°33'7 6.8
2014-Nov-20 05:33N 36°47' E 024°25'3 0.2
2014-Nov-19 10:33N 36°43' E 024°26'5 5.1
2014-Nov-19 09:33N 36°48' E 024°26'7 6.5
2014-Nov-19 08:31N 36°53' E 024°32'9 6.6
2014-Nov-19 07:13N 36°59' E 024°40'2 0.4
2014-Nov-19 01:29N 37°00' E 024°37'6 6.2
2014-Nov-19 00:33N 37°03' E 024°31'6 6.1
2014-Nov-18 23:31N 37°06' E 024°23'6 6.1
2014-Nov-18 22:30N 37°09' E 024°17'6 6.0
2014-Nov-18 21:32N 37°13' E 024°12'8 5.9
2014-Nov-18 20:08N 37°19' E 024°05'4 6.2
2014-Nov-18 19:32N 37°22' E 024°02'6 6.0
2014-Nov-18 18:30N 37°26' E 023°56'6 5.8
2014-Nov-18 17:25N 37°31' E 023°51'7 6.1
2014-Nov-18 16:16N 37°37' E 023°46'4 6.1
2014-Nov-18 15:33N 37°40' E 023°43'6 6.5
2014-Nov-18 14:33N 37°46' E 023°39'7 6.6
2014-Nov-18 13:33N 37°52' E 023°36'10 3.2
2014-Nov-18 10:32N 38°02' E 023°36'0 0.0
2014-Nov-18 09:33N 38°02' E 023°36'0 0.0
2014-Nov-18 08:33N 38°02' E 023°36'0 0.0
2014-Nov-18 07:33N 38°02' E 023°36'0 0.0
2014-Nov-18 06:33N 38°02' E 023°36'0 0.0
2014-Nov-18 05:33N 38°02' E 023°36'0 0.0
2014-Nov-18 01:33N 38°02' E 023°36'0 0.0
2014-Nov-18 00:33N 38°02' E 023°36'0 0.0
2014-Nov-17 23:33N 38°02' E 023°36'0 0.0
2014-Nov-17 22:33N 38°02' E 023°36'0 0.0
2014-Nov-17 21:33N 38°02' E 023°36'0 0.0
2014-Nov-17 20:33N 38°02' E 023°36'0 0.0
2014-Nov-17 19:33N 38°02' E 023°36'0 0.0
2014-Nov-17 18:31N 38°02' E 023°36'0 0.0
2014-Nov-17 17:33N 38°02' E 023°36'0 0.0
2014-Nov-17 16:33N 38°02' E 023°36'0 0.0
2014-Nov-17 15:32N 38°02' E 023°36'0 0.0
2014-Nov-17 14:33N 38°02' E 023°36'0 0.0
2014-Nov-17 13:30N 38°02' E 023°36'0 0.0
2014-Nov-17 12:32N 38°02' E 023°36'0 0.0
2014-Nov-17 11:33N 38°02' E 023°36'0 0.0
2014-Nov-17 10:33N 38°02' E 023°36'0 0.0
2014-Nov-17 09:33N 38°02' E 023°36'0 0.0
2014-Nov-17 08:33N 38°02' E 023°36'0 0.0
2014-Nov-17 07:33N 38°02' E 023°36'0 0.0
2014-Nov-17 06:33N 38°02' E 023°36'0 0.0
2014-Nov-17 05:33N 38°02' E 023°36'0 0.0
2014-Nov-17 04:33N 38°02' E 023°36'0 0.0
2014-Nov-17 03:33N 38°02' E 023°36'0 0.0
2014-Nov-17 02:33N 38°02' E 023°36'0 0.0
2014-Nov-17 01:33N 38°02' E 023°36'0 0.0
2014-Nov-17 00:33N 38°02' E 023°36'0 0.0
2014-Nov-16 23:33N 38°02' E 023°36'0 0.0
2014-Nov-16 22:33N 38°02' E 023°36'0 0.0
2014-Nov-16 21:33N 38°02' E 023°36'0 0.0
2014-Nov-16 20:33N 38°02' E 023°36'0 0.0
2014-Nov-16 19:33N 38°02' E 023°36'0 0.0
2014-Nov-16 18:33N 38°02' E 023°36'0 0.0
2014-Nov-16 17:33N 38°02' E 023°36'0 0.0
2014-Nov-16 16:33N 38°02' E 023°36'0 0.0
2014-Nov-16 15:33N 38°02' E 023°36'0 0.0
2014-Nov-16 14:32N 38°02' E 023°36'0 0.0
2014-Nov-16 13:33N 38°02' E 023°36'0 0.0
2014-Nov-16 12:33N 38°02' E 023°36'0 0.0
2014-Nov-16 11:33N 38°02' E 023°36'0 0.0
2014-Nov-16 10:33N 38°02' E 023°36'0 0.0
2014-Nov-16 09:33N 38°02' E 023°36'0 0.0
2014-Nov-16 08:33N 38°02' E 023°36'0 0.0
2014-Nov-16 07:33N 38°02' E 023°36'0 0.0
2014-Nov-16 06:33N 38°02' E 023°36'0 0.0
2014-Nov-16 05:33N 38°02' E 023°36'0 0.0
2014-Nov-16 04:33N 38°02' E 023°36'0 0.0
2014-Nov-16 03:33N 38°02' E 023°36'0 0.0
2014-Nov-16 02:33N 38°02' E 023°36'0 0.0
2014-Nov-16 01:32N 38°02' E 023°36'0 0.0
2014-Nov-16 00:31N 38°02' E 023°36'0 0.0
2014-Nov-15 23:33N 38°02' E 023°36'0 0.0
2014-Nov-15 22:32N 38°02' E 023°36'0 0.0
2014-Nov-15 21:33N 38°02' E 023°36'0 0.0
2014-Nov-15 20:33N 38°02' E 023°36'0 0.0
2014-Nov-15 19:33N 38°02' E 023°36'0 0.0
2014-Nov-15 18:28N 38°02' E 023°36'0 0.0
2014-Nov-15 17:30N 38°02' E 023°36'0 0.0
2014-Nov-15 16:33N 38°02' E 023°36'0 0.0
2014-Nov-15 15:32N 38°02' E 023°36'0 0.0
2014-Nov-15 14:32N 38°02' E 023°36'0 0.0
2014-Nov-15 13:32N 38°02' E 023°36'0 0.0
2014-Nov-15 12:33N 38°02' E 023°36'0 0.0
2014-Nov-15 11:21N 38°02' E 023°36'0 0.0
2014-Nov-15 10:13N 38°02' E 023°36'0 0.0
2014-Nov-15 09:32N 38°02' E 023°36'0 0.0
2014-Nov-15 08:33N 38°02' E 023°36'0 0.0
2014-Nov-15 07:33N 38°02' E 023°36'0 0.0
2014-Nov-15 06:33N 38°02' E 023°36'0 0.0
2014-Nov-15 05:33N 38°02' E 023°36'0 0.0
2014-Nov-15 04:33N 38°02' E 023°36'0 0.0
2014-Nov-15 03:33N 38°02' E 023°36'0 0.0
2014-Nov-15 02:33N 38°02' E 023°36'0 0.0
2014-Nov-15 01:31N 38°02' E 023°36'0 0.0
2014-Nov-15 00:33N 38°02' E 023°36'0 0.0
2014-Nov-14 23:33N 38°02' E 023°36'0 0.0
2014-Nov-14 22:33N 38°02' E 023°36'0 0.0
2014-Nov-14 21:32N 38°02' E 023°36'0 0.0
2014-Nov-14 20:33N 38°02' E 023°36'0 0.0
2014-Nov-14 19:29N 38°02' E 023°36'0 0.0
2014-Nov-14 18:33N 38°02' E 023°36'0 0.0
2014-Nov-14 17:33N 38°02' E 023°36'0 0.0
2014-Nov-14 16:33N 38°02' E 023°36'0 0.0
2014-Nov-14 15:33N 38°02' E 023°36'0 0.0
2014-Nov-14 14:33N 38°02' E 023°36'0 0.0
2014-Nov-13 12:32N 38°02' E 023°36'0 0.0
2014-Nov-13 11:33N 38°02' E 023°36'0 0.0
2014-Nov-13 10:18N 38°02' E 023°36'0 0.0
2014-Nov-13 09:16N 38°02' E 023°36'0 0.0
2014-Nov-13 08:32N 38°02' E 023°36'0 0.0
2014-Nov-12 23:18N 38°02' E 023°36'0 0.0
2014-Nov-12 20:07N 38°02' E 023°36'0 0.0
2014-Nov-12 19:31N 38°02' E 023°36'0 0.0
2014-Nov-12 18:31N 38°02' E 023°36'0 0.0
2014-Nov-12 17:33N 38°02' E 023°36'0 0.0
2014-Nov-12 16:33N 38°02' E 023°36'0 0.0
2014-Nov-12 15:33N 38°02' E 023°36'0 0.0
2014-Nov-12 14:33N 38°02' E 023°36'0 0.0
2014-Nov-12 13:33N 38°02' E 023°36'0 0.0
2014-Nov-12 12:18N 38°02' E 023°36'0 0.0
2014-Nov-12 11:33N 38°02' E 023°36'0 0.0
2014-Nov-12 10:33N 38°02' E 023°36'0 0.0
2014-Nov-12 06:32N 38°02' E 023°36'0 0.0
2014-Nov-11 21:08N 38°02' E 023°36'0 0.0
2014-Nov-11 19:32N 38°02' E 023°36'0 0.0
2014-Nov-11 18:32N 38°02' E 023°36'0 0.0
2014-Nov-11 17:32N 38°02' E 023°36'0 0.0
2014-Nov-11 16:33N 38°02' E 023°36'0 0.0
2014-Nov-11 15:30N 38°02' E 023°36'0 0.0
2014-Nov-11 14:25N 38°02' E 023°36'0 0.0
2014-Nov-11 12:33N 38°02' E 023°36'0 0.0
2014-Nov-11 10:30N 38°02' E 023°36'0 0.0
2014-Nov-11 07:33N 38°02' E 023°36'0 0.0
2014-Nov-11 06:33N 38°02' E 023°36'5 3.3
2014-Nov-11 05:05N 37°57' E 023°33'3 5.8
2014-Nov-11 04:33N 37°55' E 023°35'5 5.1
2014-Nov-11 03:33N 37°50' E 023°39'5 4.8
2014-Nov-11 02:33N 37°46' E 023°42'5 4.8
2014-Nov-11 01:28N 37°42' E 023°45'13 6.1
2014-Nov-10 23:22N 37°34' E 023°59'5 6.3
2014-Nov-10 22:33N 37°32' E 024°04'6 6.4
2014-Nov-10 21:33N 37°29' E 024°11'  
Track history (hours):
 
Tides and Currents Weather Stations Pressure Air Temp Water Temp Dewpoint Dewpoint Depression Visibility Wind Speed Wind Dir Waves Ship Positions

Agia Marina

Last reported at 2014-Nov-20 21:07 UTC. Time now 2014-Nov-23 16:58 UTC.
Position N 36°04' E 026°18'.

Length 59 m; draft 2.5 m.

Type: Cargo ship. MMSI: 237042500.

Date/timePositionNaut miles runAvg speedWind from/ knotsBaromVisibWave heightAir tempDewpointWater temp
2014-Nov-20 21:07N 36°04' E 026°18'4 6.7
2014-Nov-20 20:33N 36°06' E 026°14'7 6.9
2014-Nov-20 19:33N 36°10' E 026°07'7 6.5
2014-Nov-20 18:33N 36°14' E 026°01'6 5.9
2014-Nov-20 17:33N 36°18' E 025°55'5 5.5
2014-Nov-20 16:34N 36°20' E 025°49'7 6.6
2014-Nov-20 15:33N 36°22' E 025°41'6 5.7
2014-Nov-20 14:33N 36°24' E 025°34'7 6.7
2014-Nov-20 13:33N 36°28' E 025°28'7 6.8
2014-Nov-20 12:33N 36°31' E 025°20'7 6.7
2014-Nov-20 11:33N 36°33' E 025°12'7 6.7
2014-Nov-20 10:33N 36°36' E 025°04'7 6.9
2014-Nov-20 09:33N 36°39' E 024°57'7 6.9
2014-Nov-20 08:33N 36°41' E 024°49'7 6.7
2014-Nov-20 07:33N 36°43' E 024°41'7 6.7
2014-Nov-20 06:33N 36°46' E 024°33'7 6.8
2014-Nov-20 05:33N 36°47' E 024°25'3 0.2
2014-Nov-19 10:33N 36°43' E 024°26'5 5.1
2014-Nov-19 09:33N 36°48' E 024°26'7 6.5
2014-Nov-19 08:31N 36°53' E 024°32'9 6.6
2014-Nov-19 07:13N 36°59' E 024°40'2 0.4
2014-Nov-19 01:29N 37°00' E 024°37'6 6.2
2014-Nov-19 00:33N 37°03' E 024°31'6 6.1
2014-Nov-18 23:31N 37°06' E 024°23'6 6.1
2014-Nov-18 22:30N 37°09' E 024°17'6 6.0
2014-Nov-18 21:32N 37°13' E 024°12'8 5.9
2014-Nov-18 20:08N 37°19' E 024°05'4 6.2
2014-Nov-18 19:32N 37°22' E 024°02'6 6.0
2014-Nov-18 18:30N 37°26' E 023°56'6 5.8
2014-Nov-18 17:25N 37°31' E 023°51'7 6.1
2014-Nov-18 16:16N 37°37' E 023°46'4 6.1
2014-Nov-18 15:33N 37°40' E 023°43'6 6.5
2014-Nov-18 14:33N 37°46' E 023°39'7 6.6
2014-Nov-18 13:33N 37°52' E 023°36'10 3.2
2014-Nov-18 10:32N 38°02' E 023°36'0 0.0
2014-Nov-18 09:33N 38°02' E 023°36'0 0.0
2014-Nov-18 08:33N 38°02' E 023°36'0 0.0
2014-Nov-18 07:33N 38°02' E 023°36'0 0.0
2014-Nov-18 06:33N 38°02' E 023°36'0 0.0
2014-Nov-18 05:33N 38°02' E 023°36'0 0.0
2014-Nov-18 01:33N 38°02' E 023°36'0 0.0
2014-Nov-18 00:33N 38°02' E 023°36'0 0.0
2014-Nov-17 23:33N 38°02' E 023°36'0 0.0
2014-Nov-17 22:33N 38°02' E 023°36'0 0.0
2014-Nov-17 21:33N 38°02' E 023°36'0 0.0
2014-Nov-17 20:33N 38°02' E 023°36'0 0.0
2014-Nov-17 19:33N 38°02' E 023°36'0 0.0
2014-Nov-17 18:31N 38°02' E 023°36'0 0.0
2014-Nov-17 17:33N 38°02' E 023°36'0 0.0
2014-Nov-17 16:33N 38°02' E 023°36'0 0.0
2014-Nov-17 15:32N 38°02' E 023°36'0 0.0
2014-Nov-17 14:33N 38°02' E 023°36'0 0.0
2014-Nov-17 13:30N 38°02' E 023°36'0 0.0
2014-Nov-17 12:32N 38°02' E 023°36'0 0.0
2014-Nov-17 11:33N 38°02' E 023°36'0 0.0
2014-Nov-17 10:33N 38°02' E 023°36'0 0.0
2014-Nov-17 09:33N 38°02' E 023°36'0 0.0
2014-Nov-17 08:33N 38°02' E 023°36'0 0.0
2014-Nov-17 07:33N 38°02' E 023°36'0 0.0
2014-Nov-17 06:33N 38°02' E 023°36'0 0.0
2014-Nov-17 05:33N 38°02' E 023°36'0 0.0
2014-Nov-17 04:33N 38°02' E 023°36'0 0.0
2014-Nov-17 03:33N 38°02' E 023°36'0 0.0
2014-Nov-17 02:33N 38°02' E 023°36'0 0.0
2014-Nov-17 01:33N 38°02' E 023°36'0 0.0
2014-Nov-17 00:33N 38°02' E 023°36'0 0.0
2014-Nov-16 23:33N 38°02' E 023°36'0 0.0
2014-Nov-16 22:33N 38°02' E 023°36'0 0.0
2014-Nov-16 21:33N 38°02' E 023°36'0 0.0
2014-Nov-16 20:33N 38°02' E 023°36'0 0.0
2014-Nov-16 19:33N 38°02' E 023°36'0 0.0
2014-Nov-16 18:33N 38°02' E 023°36'0 0.0
2014-Nov-16 17:33N 38°02' E 023°36'0 0.0
2014-Nov-16 16:33N 38°02' E 023°36'0 0.0
2014-Nov-16 15:33N 38°02' E 023°36'0 0.0
2014-Nov-16 14:32N 38°02' E 023°36'0 0.0
2014-Nov-16 13:33N 38°02' E 023°36'0 0.0
2014-Nov-16 12:33N 38°02' E 023°36'0 0.0
2014-Nov-16 11:33N 38°02' E 023°36'0 0.0
2014-Nov-16 10:33N 38°02' E 023°36'0 0.0
2014-Nov-16 09:33N 38°02' E 023°36'0 0.0
2014-Nov-16 08:33N 38°02' E 023°36'0 0.0
2014-Nov-16 07:33N 38°02' E 023°36'0 0.0
2014-Nov-16 06:33N 38°02' E 023°36'0 0.0
2014-Nov-16 05:33N 38°02' E 023°36'0 0.0
2014-Nov-16 04:33N 38°02' E 023°36'0 0.0
2014-Nov-16 03:33N 38°02' E 023°36'0 0.0
2014-Nov-16 02:33N 38°02' E 023°36'0 0.0
2014-Nov-16 01:32N 38°02' E 023°36'0 0.0
2014-Nov-16 00:31N 38°02' E 023°36'0 0.0
2014-Nov-15 23:33N 38°02' E 023°36'0 0.0
2014-Nov-15 22:32N 38°02' E 023°36'0 0.0
2014-Nov-15 21:33N 38°02' E 023°36'0 0.0
2014-Nov-15 20:33N 38°02' E 023°36'0 0.0
2014-Nov-15 19:33N 38°02' E 023°36'0 0.0
2014-Nov-15 18:28N 38°02' E 023°36'0 0.0
2014-Nov-15 17:30N 38°02' E 023°36'0 0.0
2014-Nov-15 16:33N 38°02' E 023°36'0 0.0
2014-Nov-15 15:32N 38°02' E 023°36'0 0.0
2014-Nov-15 14:32N 38°02' E 023°36'0 0.0
2014-Nov-15 13:32N 38°02' E 023°36'0 0.0
2014-Nov-15 12:33N 38°02' E 023°36'0 0.0
2014-Nov-15 11:21N 38°02' E 023°36'0 0.0
2014-Nov-15 10:13N 38°02' E 023°36'0 0.0
2014-Nov-15 09:32N 38°02' E 023°36'0 0.0
2014-Nov-15 08:33N 38°02' E 023°36'0 0.0
2014-Nov-15 07:33N 38°02' E 023°36'0 0.0
2014-Nov-15 06:33N 38°02' E 023°36'0 0.0
2014-Nov-15 05:33N 38°02' E 023°36'0 0.0
2014-Nov-15 04:33N 38°02' E 023°36'0 0.0
2014-Nov-15 03:33N 38°02' E 023°36'0 0.0
2014-Nov-15 02:33N 38°02' E 023°36'0 0.0
2014-Nov-15 01:31N 38°02' E 023°36'0 0.0
2014-Nov-15 00:33N 38°02' E 023°36'0 0.0
2014-Nov-14 23:33N 38°02' E 023°36'0 0.0
2014-Nov-14 22:33N 38°02' E 023°36'0 0.0
2014-Nov-14 21:32N 38°02' E 023°36'0 0.0
2014-Nov-14 20:33N 38°02' E 023°36'0 0.0
2014-Nov-14 19:29N 38°02' E 023°36'0 0.0
2014-Nov-14 18:33N 38°02' E 023°36'0 0.0
2014-Nov-14 17:33N 38°02' E 023°36'0 0.0
2014-Nov-14 16:33N 38°02' E 023°36'0 0.0
2014-Nov-14 15:33N 38°02' E 023°36'0 0.0
2014-Nov-14 14:33N 38°02' E 023°36'0 0.0
2014-Nov-13 12:32N 38°02' E 023°36'0 0.0
2014-Nov-13 11:33N 38°02' E 023°36'0 0.0
2014-Nov-13 10:18N 38°02' E 023°36'0 0.0
2014-Nov-13 09:16N 38°02' E 023°36'0 0.0
2014-Nov-13 08:32N 38°02' E 023°36'0 0.0
2014-Nov-12 23:18N 38°02' E 023°36'0 0.0
2014-Nov-12 20:07N 38°02' E 023°36'0 0.0
2014-Nov-12 19:31N 38°02' E 023°36'0 0.0
2014-Nov-12 18:31N 38°02' E 023°36'0 0.0
2014-Nov-12 17:33N 38°02' E 023°36'0 0.0
2014-Nov-12 16:33N 38°02' E 023°36'0 0.0
2014-Nov-12 15:33N 38°02' E 023°36'0 0.0
2014-Nov-12 14:33N 38°02' E 023°36'0 0.0
2014-Nov-12 13:33N 38°02' E 023°36'0 0.0
2014-Nov-12 12:18N 38°02' E 023°36'0 0.0
2014-Nov-12 11:33N 38°02' E 023°36'0 0.0
2014-Nov-12 10:33N 38°02' E 023°36'0 0.0
2014-Nov-12 06:32N 38°02' E 023°36'0 0.0
2014-Nov-11 21:08N 38°02' E 023°36'0 0.0
2014-Nov-11 19:32N 38°02' E 023°36'0 0.0
2014-Nov-11 18:32N 38°02' E 023°36'0 0.0
2014-Nov-11 17:32N 38°02' E 023°36'0 0.0
2014-Nov-11 16:33N 38°02' E 023°36'0 0.0
2014-Nov-11 15:30N 38°02' E 023°36'0 0.0
2014-Nov-11 14:25N 38°02' E 023°36'0 0.0
2014-Nov-11 12:33N 38°02' E 023°36'0 0.0
2014-Nov-11 10:30N 38°02' E 023°36'0 0.0
2014-Nov-11 07:33N 38°02' E 023°36'0 0.0
2014-Nov-11 06:33N 38°02' E 023°36'5 3.3
2014-Nov-11 05:05N 37°57' E 023°33'3 5.8
2014-Nov-11 04:33N 37°55' E 023°35'5 5.1
2014-Nov-11 03:33N 37°50' E 023°39'5 4.8
2014-Nov-11 02:33N 37°46' E 023°42'5 4.8
2014-Nov-11 01:28N 37°42' E 023°45'13 6.1
2014-Nov-10 23:22N 37°34' E 023°59'5 6.3
2014-Nov-10 22:33N 37°32' E 024°04'6 6.4
2014-Nov-10 21:33N 37°29' E 024°11'  

Dump ship's entire track history